Time;durP1;ratioP1;P1;durP2;ratioP2;P2;SDS_P1;SDS_P2;PMS_P1;PMS_P2;Temp;Humidity;BMP_temperature;BMP_pressure;BME280_temperature;BME280_humidity;BME280_pressure;Samples;Min_cycle;Max_cycle;Signal;HPM_P1;HPM_P2
2022/11/03 00:01:53;;;;;;;14.15;3.13;;;10.30;84.90;;;;;;5004238;28;20758;-55
2022/11/03 00:04:21;;;;;;;18.73;2.75;;;11.40;84.10;;;;;;4985843;28;20038;-55
2022/11/03 00:06:49;;;;;;;14.60;2.42;;;10.60;80.70;;;;;;5001068;28;20042;-56
2022/11/03 00:09:17;;;;;;;16.80;2.63;;;10.40;81.60;;;;;;5004637;28;20499;-56
2022/11/03 00:11:44;;;;;;;14.43;2.20;;;10.30;82.00;;;;;;5004078;28;20041;-56
2022/11/03 00:14:11;;;;;;;19.70;2.90;;;10.50;81.60;;;;;;5006778;28;20493;-55
2022/11/03 00:16:38;;;;;;;16.42;2.55;;;10.40;81.70;;;;;;5000934;28;20034;-53
2022/11/03 00:19:04;;;;;;;18.52;2.67;;;10.40;78.70;;;;;;5003129;28;20037;-54
2022/11/03 00:21:30;;;;;;;15.38;3.00;;;10.40;80.60;;;;;;5000811;28;20134;-54
2022/11/03 00:23:56;;;;;;;13.57;2.60;;;12.00;81.30;;;;;;5003673;28;20038;-54
2022/11/03 00:26:27;;;;;;;15.98;2.60;;;10.40;81.10;;;;;;5002001;28;20042;-54
2022/11/03 00:28:55;;;;;;;15.68;2.72;;;11.20;79.30;;;;;;5002110;28;20042;-55
2022/11/03 00:31:30;;;;;;;13.23;2.80;;;10.30;79.80;;;;;;5003065;28;20111;-55
2022/11/03 00:33:57;;;;;;;14.50;2.42;;;10.40;79.20;;;;;;5002891;28;20046;-55
2022/11/03 00:36:28;;;;;;;17.42;2.45;;;10.90;81.20;;;;;;5002891;28;20372;-56
2022/11/03 00:38:54;;;;;;;17.75;2.78;;;10.50;81.90;;;;;;5001961;28;20088;-54
2022/11/03 00:41:23;;;;;;;13.85;2.17;;;10.50;80.80;;;;;;5005217;28;20075;-56
2022/11/03 00:43:49;;;;;;;15.77;2.72;;;11.80;84.50;;;;;;5005717;28;20503;-55
2022/11/03 00:46:16;;;;;;;13.63;2.70;;;11.40;83.10;;;;;;5004715;28;20929;-55
2022/11/03 00:48:42;;;;;;;19.77;2.97;;;10.20;82.50;;;;;;5008484;28;20041;-54
2022/11/03 00:51:11;;;;;;;16.85;2.45;;;10.50;83.40;;;;;;5007450;28;20045;-56
2022/11/03 00:53:41;;;;;;;12.25;2.50;;;10.40;81.40;;;;;;5008508;28;20412;-56
2022/11/03 00:56:12;;;;;;;14.38;2.55;;;10.40;84.10;;;;;;5006558;28;20056;-55
2022/11/03 00:58:39;;;;;;;16.77;3.08;;;10.20;85.20;;;;;;5007333;28;20061;-56
2022/11/03 01:01:16;;;;;;;11.25;2.22;;;11.50;86.80;;;;;;5008269;28;20083;-55
2022/11/03 01:06:48;;;;;;;15.80;2.88;;;12.70;86.00;;;;;;5006847;28;20044;-55
2022/11/03 01:06:50;;;;;;;17.95;3.40;;;10.40;82.20;;;;;;5005383;28;20057;-54
2022/11/03 01:09:30;;;;;;;14.20;2.50;;;10.30;84.60;;;;;;5004885;28;20480;-56
2022/11/03 01:11:56;;;;;;;12.40;2.40;;;10.20;84.50;;;;;;4999985;28;20039;-55
2022/11/03 01:14:24;;;;;;;12.23;2.63;;;11.30;88.10;;;;;;5004753;28;20515;-55
2022/11/03 01:16:50;;;;;;;16.98;2.70;;;10.30;87.90;;;;;;5007064;28;20773;-55
2022/11/03 01:19:15;;;;;;;12.45;2.33;;;10.80;87.70;;;;;;5006085;28;20783;-52
2022/11/03 01:21:42;;;;;;;12.02;2.10;;;11.30;90.10;;;;;;5006021;28;20041;-54
2022/11/03 01:24:08;;;;;;;16.42;2.97;;;11.00;90.40;;;;;;5003204;28;20050;-55
2022/11/03 01:26:34;;;;;;;14.13;2.55;;;9.10;90.00;;;;;;5006593;28;20072;-55
2022/11/03 01:29:00;;;;;;;10.93;2.33;;;10.20;90.10;;;;;;5005970;28;20042;-55
2022/11/03 01:31:26;;;;;;;14.10;2.80;;;10.50;90.30;;;;;;5007869;28;20080;-56
2022/11/03 01:33:54;;;;;;;17.20;2.75;;;10.60;90.70;;;;;;5003365;28;20272;-55
2022/11/03 01:36:20;;;;;;;17.02;3.65;;;10.00;94.50;;;;;;5003547;28;20041;-55
2022/11/03 01:38:46;;;;;;;14.35;2.47;;;10.20;92.30;;;;;;5002416;28;20037;-55
2022/11/03 01:41:17;;;;;;;17.13;3.33;;;10.00;91.80;;;;;;5005716;28;20041;-56
2022/11/03 01:43:43;;;;;;;13.63;2.53;;;10.20;92.80;;;;;;5001671;28;20045;-55
2022/11/03 01:46:27;;;;;;;10.65;2.55;;;10.00;92.80;;;;;;5004331;28;20204;-51
2022/11/03 01:49:15;;;;;;;16.60;2.33;;;10.00;93.80;;;;;;5008559;28;20048;-55
2022/11/03 01:51:43;;;;;;;16.45;3.97;;;10.00;93.20;;;;;;5002041;28;20053;-55
2022/11/03 01:54:13;;;;;;;13.82;2.95;;;11.80;94.20;;;;;;5003246;28;20045;-55
2022/11/03 01:56:42;;;;;;;12.32;2.72;;;9.90;93.40;;;;;;5004021;28;20038;-56
2022/11/03 01:59:09;;;;;;;16.27;2.65;;;10.00;93.20;;;;;;5004470;28;21037;-56
2022/11/03 02:01:36;;;;;;;19.33;3.05;;;10.60;93.60;;;;;;5006526;28;20225;-55
2022/11/03 02:04:12;;;;;;;12.95;2.92;;;10.40;93.50;;;;;;5005726;28;20604;-55
2022/11/03 02:06:37;;;;;;;14.43;2.78;;;8.00;93.80;;;;;;5002244;28;20126;-55
2022/11/03 02:09:05;;;;;;;21.42;3.60;;;9.80;94.10;;;;;;5006782;28;20136;-55
2022/11/03 02:14:17;;;;;;;11.68;2.33;;;10.90;94.50;;;;;;5002068;28;20130;-56
2022/11/03 02:16:55;;;;;;;18.45;2.60;;;10.00;94.30;;;;;;5006026;28;20037;-55
2022/11/03 02:19:45;;;;;;;15.63;4.18;;;10.00;95.40;;;;;;5007457;28;20529;-53
2022/11/03 02:22:23;;;;;;;17.20;3.28;;;9.90;96.50;;;;;;5002290;28;20068;-54
2022/11/03 02:25:11;;;;;;;12.10;2.40;;;10.20;96.10;;;;;;5002795;28;20076;-56
2022/11/03 02:27:37;;;;;;;9.27;2.17;;;9.90;97.00;;;;;;5006118;28;20057;-54
2022/11/03 02:30:03;;;;;;;14.27;3.00;;;9.60;97.00;;;;;;5005124;28;20519;-55
2022/11/03 02:32:37;;;;;;;13.73;2.08;;;9.80;98.50;;;;;;5004747;28;20081;-55
2022/11/03 02:35:35;;;;;;;12.68;2.53;;;10.80;98.30;;;;;;5005495;28;20038;-54
2022/11/03 02:38:05;;;;;;;16.35;2.78;;;9.60;99.90;;;;;;5004790;28;20076;-54
2022/11/03 02:40:37;;;;;;;17.65;3.03;;;10.80;99.10;;;;;;5007007;28;20050;-55
2022/11/03 02:43:04;;;;;;;16.15;2.85;;;9.90;98.50;;;;;;5004885;28;20468;-55
2022/11/03 02:45:30;;;;;;;14.63;3.10;;;11.40;99.90;;;;;;5005718;28;20539;-55
2022/11/03 02:47:59;;;;;;;19.20;2.75;;;11.30;99.90;;;;;;5005320;28;20050;-55
2022/11/03 02:50:27;;;;;;;17.15;3.22;;;9.90;99.90;;;;;;5001599;28;20037;-56
2022/11/03 02:52:52;;;;;;;12.48;2.75;;;9.80;99.90;;;;;;5001445;28;20041;-55
2022/11/03 02:55:58;;;;;;;18.05;2.80;;;10.40;99.90;;;;;;5005345;28;20057;-54
2022/11/03 02:58:34;;;;;;;16.55;2.88;;;9.90;99.90;;;;;;4987347;28;20412;-54
2022/11/03 03:01:21;;;;;;;17.77;2.83;;;10.00;99.90;;;;;;5004062;28;20056;-55
2022/11/03 03:03:51;;;;;;;17.02;3.85;;;10.10;99.70;;;;;;5002259;28;20048;-55
2022/11/03 03:06:32;;;;;;;13.82;2.50;;;8.50;99.90;;;;;;5003508;28;20049;-53
2022/11/03 03:09:10;;;;;;;14.65;2.47;;;11.20;99.90;;;;;;5003564;28;20427;-53
2022/11/03 03:11:41;;;;;;;13.85;2.65;;;10.10;99.90;;;;;;5002530;28;20045;-56
2022/11/03 03:14:22;;;;;;;16.42;2.70;;;10.10;99.90;;;;;;5004536;28;20056;-56
2022/11/03 03:16:56;;;;;;;14.65;2.70;;;10.20;99.90;;;;;;5001384;28;20173;-56
2022/11/03 03:19:40;;;;;;;13.40;3.22;;;10.10;99.90;;;;;;5005229;28;20057;-55
2022/11/03 03:22:16;;;;;;;14.05;3.33;;;10.20;99.90;;;;;;5004817;28;20071;-56
2022/11/03 03:24:52;;;;;;;15.00;2.80;;;12.10;99.90;;;;;;5005924;28;20045;-54
2022/11/03 03:27:22;;;;;;;14.95;2.42;;;10.00;99.90;;;;;;5007273;28;20047;-55
2022/11/03 03:30:09;;;;;;;14.50;2.92;;;10.40;99.90;;;;;;5001827;28;20124;-55
2022/11/03 03:32:42;;;;;;;18.58;3.13;;;9.90;99.90;;;;;;5005114;28;20132;-55
2022/11/03 03:35:11;;;;;;;15.65;3.30;;;10.40;99.90;;;;;;5005361;28;20527;-55
2022/11/03 03:37:41;;;;;;;18.55;3.22;;;12.10;99.90;;;;;;5005447;28;20693;-54
2022/11/03 03:40:11;;;;;;;13.70;2.75;;;10.00;99.90;;;;;;5004558;28;20057;-54
2022/11/03 03:42:39;;;;;;;15.43;3.00;;;10.10;99.90;;;;;;5003338;28;20050;-55
2022/11/03 03:45:08;;;;;;;12.45;2.47;;;10.10;99.90;;;;;;5003136;28;20828;-55
2022/11/03 03:47:34;;;;;;;13.20;2.63;;;10.10;99.90;;;;;;5000375;28;20077;-55
2022/11/03 03:50:00;;;;;;;14.32;2.78;;;10.20;99.90;;;;;;5004970;28;20129;-55
2022/11/03 03:52:28;;;;;;;12.60;2.90;;;10.10;99.90;;;;;;5001380;28;20029;-54
2022/11/03 03:54:55;;;;;;;16.55;3.08;;;11.00;99.90;;;;;;5001198;28;20041;-56
2022/11/03 03:57:26;;;;;;;16.63;2.65;;;11.10;99.90;;;;;;5004613;28;20099;-57
2022/11/03 03:59:51;;;;;;;17.60;3.33;;;9.90;99.90;;;;;;5004811;28;20640;-52
2022/11/03 04:02:17;;;;;;;13.68;3.03;;;10.40;99.90;;;;;;4994629;28;20424;-55
2022/11/03 04:04:43;;;;;;;14.10;2.50;;;10.00;99.90;;;;;;4982162;28;20041;-53
2022/11/03 04:09:53;;;;;;;19.58;3.20;;;9.80;99.90;;;;;;5002749;28;20515;-55
2022/11/03 04:23:18;;;;;;;15.75;3.05;;;9.80;99.90;;;;;;5006397;28;20415;-55
2022/11/03 04:25:51;;;;;;;17.88;2.63;;;10.00;99.90;;;;;;5008367;28;20117;-55
2022/11/03 04:28:17;;;;;;;16.08;3.40;;;9.80;99.90;;;;;;5008967;28;20037;-55
2022/11/03 04:30:43;;;;;;;15.45;3.00;;;9.90;99.90;;;;;;5005134;28;20044;-55
2022/11/03 04:33:20;;;;;;;14.63;2.63;;;9.90;99.90;;;;;;5004680;28;20579;-55
2022/11/03 04:35:47;;;;;;;14.13;3.03;;;11.80;99.90;;;;;;5007897;28;20034;-55
2022/11/03 04:38:13;;;;;;;16.45;2.95;;;11.70;99.90;;;;;;5007216;28;20071;-55
2022/11/03 04:40:44;;;;;;;16.13;4.55;;;10.00;99.90;;;;;;5006657;28;20619;-56
2022/11/03 04:43:13;;;;;;;9.68;2.65;;;11.40;99.90;;;;;;5008755;28;20061;-55
2022/11/03 04:45:41;;;;;;;14.77;3.38;;;10.20;99.90;;;;;;5004826;28;20042;-55
2022/11/03 04:48:20;;;;;;;18.05;3.38;;;10.00;99.90;;;;;;5009353;28;20423;-55
2022/11/03 04:50:48;;;;;;;15.90;3.42;;;10.20;99.90;;;;;;5005757;28;20056;-55
2022/11/03 04:53:17;;;;;;;16.15;2.72;;;11.60;99.90;;;;;;5007466;28;20033;-53
2022/11/03 04:55:44;;;;;;;10.02;2.22;;;10.10;99.90;;;;;;5007836;28;20203;-54
2022/11/03 04:58:40;;;;;;;8.75;2.70;;;10.00;99.90;;;;;;5006225;28;20609;-55
2022/11/03 05:01:12;;;;;;;11.77;2.67;;;10.00;99.90;;;;;;5015166;28;20053;-55
2022/11/03 05:03:39;;;;;;;16.77;2.65;;;10.20;99.90;;;;;;5007407;28;20452;-54
2022/11/03 05:06:17;;;;;;;16.85;2.70;;;10.10;99.90;;;;;;5003771;28;20057;-55
2022/11/03 05:08:46;;;;;;;13.85;3.00;;;10.10;99.90;;;;;;5004165;28;20046;-51
2022/11/03 05:11:18;;;;;;;16.17;2.60;;;10.10;99.90;;;;;;5005246;28;20049;-54
2022/11/03 05:13:43;;;;;;;14.23;2.42;;;10.10;99.90;;;;;;5006317;28;20038;-54
2022/11/03 05:16:09;;;;;;;16.45;3.63;;;10.40;99.90;;;;;;5006919;28;20049;-53
2022/11/03 05:18:41;;;;;;;17.77;2.30;;;10.30;99.90;;;;;;5005794;28;20749;-55
2022/11/03 05:21:12;;;;;;;;;;;10.30;99.90;;;;;;5005549;28;20574;-56
2022/11/03 05:24:01;;;;;;;11.23;2.35;;;12.50;99.90;;;;;;5003102;28;19932;-55
2022/11/03 05:26:34;;;;;;;15.70;2.60;;;10.10;99.90;;;;;;5007213;28;20052;-54
2022/11/03 05:29:01;;;;;;;;;;;10.30;99.90;;;;;;5007040;28;20042;-54
2022/11/03 05:31:33;;;;;;;14.13;2.75;;;11.40;99.90;;;;;;5008363;28;19925;-55
2022/11/03 05:34:00;;;;;;;;;;;10.90;99.90;;;;;;5005426;28;20531;-55
2022/11/03 05:36:29;;;;;;;12.52;2.25;;;10.20;99.90;;;;;;5004023;28;19925;-55
2022/11/03 05:39:00;;;;;;;14.05;2.60;;;10.20;99.90;;;;;;5007434;28;20057;-54
2022/11/03 05:41:29;;;;;;;14.07;2.90;;;10.20;99.90;;;;;;5005661;28;20094;-54
2022/11/03 05:44:25;;;;;;;15.02;2.42;;;11.90;99.90;;;;;;5004574;28;20435;-55
2022/11/03 05:46:51;;;;;;;15.75;2.60;;;10.20;99.90;;;;;;5007451;28;20060;-55
2022/11/03 05:49:17;;;;;;;10.63;2.17;;;12.30;99.90;;;;;;5006859;28;20292;-55
2022/11/03 05:51:44;;;;;;;14.60;2.33;;;10.00;99.90;;;;;;5006788;28;20057;-55
2022/11/03 05:54:26;;;;;;;16.70;3.08;;;10.10;99.90;;;;;;5003788;28;20085;-55
2022/11/03 05:56:52;;;;;;;17.15;2.70;;;12.00;99.90;;;;;;5006236;28;20384;-56
2022/11/03 05:59:24;;;;;;;12.15;2.65;;;10.10;99.90;;;;;;5007291;28;20821;-54
2022/11/03 06:01:51;;;;;;;13.32;2.28;;;12.00;99.90;;;;;;5005919;28;20041;-52
2022/11/03 06:04:35;;;;;;;13.77;2.40;;;9.80;99.90;;;;;;5007822;28;20132;-54
2022/11/03 06:07:09;;;;;;;11.10;2.60;;;10.00;99.90;;;;;;5003355;28;20041;-53
2022/11/03 06:09:35;;;;;;;9.77;2.63;;;9.80;99.90;;;;;;5002765;28;20033;-55
2022/11/03 06:12:04;;;;;;;18.67;3.97;;;9.90;99.90;;;;;;5005136;28;20049;-55
2022/11/03 06:14:31;;;;;;;12.27;2.55;;;9.90;99.90;;;;;;4999591;28;20045;-55
2022/11/03 06:17:04;;;;;;;16.50;3.05;;;9.90;99.90;;;;;;5005376;28;20041;-54
2022/11/03 06:19:40;;;;;;;13.95;2.50;;;10.70;99.90;;;;;;5001360;28;20300;-55
2022/11/03 06:22:23;;;;;;;10.43;2.47;;;9.70;99.90;;;;;;5006160;28;20041;-55
2022/11/03 06:24:50;;;;;;;12.82;3.47;;;9.80;99.90;;;;;;5002446;28;20129;-55
2022/11/03 06:27:20;;;;;;;17.75;3.88;;;9.80;99.90;;;;;;5007881;28;20053;-54
2022/11/03 06:29:50;;;;;;;13.82;2.55;;;9.90;99.90;;;;;;5005331;28;20318;-54
2022/11/03 06:32:17;;;;;;;14.10;2.30;;;12.20;99.90;;;;;;5003614;28;20053;-55
2022/11/03 06:34:47;;;;;;;11.68;2.80;;;12.00;99.90;;;;;;5003017;28;20121;-55
2022/11/03 06:37:32;;;;;;;11.98;2.92;;;9.90;99.90;;;;;;5003638;28;20730;-55
2022/11/03 06:40:19;;;;;;;14.02;2.67;;;9.90;99.90;;;;;;5002919;28;20037;-55
2022/11/03 06:42:45;;;;;;;15.32;2.78;;;12.10;99.90;;;;;;4994187;28;20955;-55
2022/11/03 06:45:21;;;;;;;9.70;2.15;;;7.90;99.90;;;;;;5005065;28;20133;-54
2022/11/03 06:47:47;;;;;;;13.85;2.70;;;9.90;99.90;;;;;;5005277;28;20041;-54
2022/11/03 06:50:27;;;;;;;14.30;2.78;;;9.90;99.90;;;;;;5005722;28;20778;-55
2022/11/03 06:52:54;;;;;;;15.88;2.50;;;10.10;99.90;;;;;;5006344;28;20046;-55
2022/11/03 06:55:30;;;;;;;19.92;3.55;;;10.50;99.90;;;;;;5004788;28;20051;-55
2022/11/03 06:58:00;;;;;;;15.48;3.35;;;11.40;99.90;;;;;;5001927;28;20041;-55
2022/11/03 07:00:28;;;;;;;17.23;2.72;;;12.40;99.90;;;;;;5001301;28;20141;-54
2022/11/03 07:03:09;;;;;;;15.35;2.65;;;10.60;99.90;;;;;;5000888;28;20124;-56
2022/11/03 07:05:36;;;;;;;14.90;4.22;;;9.90;99.90;;;;;;5004860;28;20041;-55
2022/11/03 07:08:16;;;;;;;15.93;3.20;;;10.00;99.90;;;;;;5003000;28;20079;-55
2022/11/03 07:10:42;;;;;;;11.65;2.15;;;10.10;99.90;;;;;;5000369;28;20094;-51
2022/11/03 07:13:17;;;;;;;11.43;2.88;;;10.10;99.90;;;;;;5006637;28;20041;-54
2022/11/03 07:15:44;;;;;;;11.57;2.40;;;10.20;99.90;;;;;;5002421;28;20041;-55
2022/11/03 07:18:24;;;;;;;14.55;2.63;;;12.10;99.90;;;;;;5004450;28;20129;-54
2022/11/03 07:20:51;;;;;;;10.55;2.30;;;10.20;99.90;;;;;;5006518;28;20141;-53
2022/11/03 07:23:22;;;;;;;12.93;2.72;;;10.30;99.90;;;;;;4987417;28;20038;-53
2022/11/03 07:25:53;;;;;;;11.93;2.53;;;10.90;99.90;;;;;;5002642;28;20399;-53
2022/11/03 07:28:22;;;;;;;18.60;2.92;;;12.20;99.90;;;;;;5004261;28;20100;-54
2022/11/03 07:30:47;;;;;;;10.23;2.00;;;10.40;99.90;;;;;;4999102;28;20046;-52
2022/11/03 07:33:19;;;;;;;12.43;2.13;;;10.50;99.90;;;;;;5005036;28;20052;-55
2022/11/03 07:35:46;;;;;;;10.55;2.00;;;10.50;99.90;;;;;;5002260;28;20045;-55
2022/11/03 07:38:18;;;;;;;11.02;2.33;;;10.50;99.90;;;;;;5000455;28;20125;-55
2022/11/03 07:40:45;;;;;;;11.15;2.50;;;10.50;99.90;;;;;;5001953;28;20120;-54
2022/11/03 07:43:16;;;;;;;9.05;2.35;;;10.40;99.90;;;;;;5004408;28;20083;-54
2022/11/03 07:45:54;;;;;;;14.70;3.67;;;10.50;99.90;;;;;;5003394;28;20075;-55
2022/11/03 07:48:24;;;;;;;11.77;2.60;;;10.60;99.90;;;;;;5005667;28;20478;-55
2022/11/03 07:50:59;;;;;;;13.02;3.15;;;12.30;99.90;;;;;;5007104;28;20094;-55
2022/11/03 07:53:39;;;;;;;15.98;3.88;;;10.80;99.90;;;;;;5009304;28;20571;-54
2022/11/03 07:56:21;;;;;;;12.02;2.50;;;10.50;99.90;;;;;;5008267;28;20041;-55
2022/11/03 07:58:53;;;;;;;12.75;2.53;;;10.80;99.90;;;;;;5008622;28;20104;-55
2022/11/03 08:01:19;;;;;;;13.48;3.38;;;10.70;99.90;;;;;;5010776;28;20064;-56
2022/11/03 08:03:47;;;;;;;17.98;3.00;;;8.80;99.90;;;;;;5007430;28;20053;-54
2022/11/03 08:06:13;;;;;;;11.13;2.25;;;10.80;99.90;;;;;;5009822;28;20128;-55
2022/11/03 08:08:39;;;;;;;15.45;3.47;;;10.90;99.90;;;;;;5011602;28;20034;-53
2022/11/03 08:11:05;;;;;;;10.90;2.05;;;11.00;99.90;;;;;;5009762;28;20049;-54
2022/11/03 08:13:31;;;;;;;12.13;2.70;;;12.20;99.90;;;;;;5013055;28;20053;-55
2022/11/03 08:15:57;;;;;;;10.52;2.28;;;10.90;99.90;;;;;;5006851;28;20043;-52
2022/11/03 08:18:23;;;;;;;12.38;3.05;;;10.90;99.90;;;;;;5010475;28;20045;-53
2022/11/03 08:20:49;;;;;;;15.35;2.95;;;11.10;99.90;;;;;;5009156;28;20079;-55
2022/11/03 08:23:15;;;;;;;11.95;2.30;;;11.10;99.90;;;;;;5007393;28;20046;-54
2022/11/03 08:25:42;;;;;;;15.02;2.50;;;12.80;99.90;;;;;;5008954;28;20418;-55
2022/11/03 08:28:08;;;;;;;13.48;2.58;;;11.30;99.90;;;;;;5009258;28;20048;-54
2022/11/03 08:30:34;;;;;;;13.20;2.67;;;11.40;99.90;;;;;;5010578;28;20060;-54
2022/11/03 08:33:00;;;;;;;8.10;1.98;;;11.50;99.90;;;;;;5009099;28;20515;-55
2022/11/03 08:35:26;;;;;;;13.32;2.83;;;11.80;99.90;;;;;;5010317;28;20613;-55
2022/11/03 08:37:52;;;;;;;12.85;2.90;;;11.90;99.90;;;;;;5012023;28;20174;-55
2022/11/03 08:40:18;;;;;;;10.20;2.40;;;12.10;99.90;;;;;;5011663;28;20044;-54
2022/11/03 08:42:43;;;;;;;15.52;3.25;;;12.00;99.90;;;;;;5013686;28;20049;-54
2022/11/03 08:45:10;;;;;;;12.25;2.50;;;12.20;99.60;;;;;;5011604;28;20034;-55
2022/11/03 08:47:36;;;;;;;15.50;2.70;;;12.30;96.80;;;;;;5010877;28;20734;-52
2022/11/03 08:50:02;;;;;;;12.32;2.80;;;12.50;97.10;;;;;;5010770;28;21172;-55
2022/11/03 08:52:28;;;;;;;12.23;2.50;;;12.40;97.40;;;;;;5009236;28;20381;-55
2022/11/03 08:54:54;;;;;;;11.52;2.70;;;14.40;98.80;;;;;;5011274;28;20040;-54
2022/11/03 08:57:20;;;;;;;13.50;3.00;;;12.50;95.50;;;;;;5010536;28;20050;-56
2022/11/03 08:59:47;;;;;;;10.77;2.50;;;14.40;97.30;;;;;;5010339;28;20084;-55
2022/11/03 09:02:13;;;;;;;10.40;2.67;;;13.50;93.00;;;;;;5006275;28;20051;-56
2022/11/03 09:04:39;;;;;;;12.32;2.88;;;14.60;94.60;;;;;;5007396;28;20037;-55
2022/11/03 09:07:05;;;;;;;15.90;3.38;;;12.50;94.80;;;;;;5005234;28;20228;-52
2022/11/03 09:09:30;;;;;;;13.18;2.95;;;12.60;95.10;;;;;;5003918;28;20046;-55
2022/11/03 09:11:56;;;;;;;8.40;2.22;;;12.70;94.20;;;;;;5008966;28;20080;-56
2022/11/03 09:14:22;;;;;;;14.98;2.78;;;12.40;95.80;;;;;;5002517;28;20659;-55
2022/11/03 09:16:47;;;;;;;12.27;2.50;;;13.10;97.00;;;;;;5005354;28;20132;-55
2022/11/03 09:19:13;;;;;;;13.70;2.63;;;12.70;96.30;;;;;;5004957;28;20132;-55
2022/11/03 09:21:39;;;;;;;17.40;2.75;;;12.50;94.50;;;;;;5008155;28;20389;-55
2022/11/03 09:24:05;;;;;;;12.52;2.97;;;12.70;95.50;;;;;;5006598;28;20045;-53
2022/11/03 09:26:30;;;;;;;15.43;3.25;;;12.90;94.30;;;;;;5006543;28;20136;-55
2022/11/03 09:28:56;;;;;;;9.88;2.28;;;12.90;93.70;;;;;;5006328;28;20618;-55
2022/11/03 09:31:24;;;;;;;10.90;2.60;;;12.80;94.90;;;;;;5005759;28;20042;-55
2022/11/03 09:33:50;;;;;;;12.27;2.40;;;12.80;94.60;;;;;;5005168;28;20053;-53
2022/11/03 09:36:16;;;;;;;11.90;2.55;;;12.70;96.70;;;;;;5007520;28;20041;-54
2022/11/03 09:38:41;;;;;;;13.85;3.25;;;12.60;95.80;;;;;;5004057;28;20639;-56
2022/11/03 09:41:08;;;;;;;10.70;2.65;;;12.60;96.90;;;;;;5006023;28;20042;-55
2022/11/03 09:43:34;;;;;;;11.93;2.80;;;12.80;96.00;;;;;;5003452;28;20146;-53
2022/11/03 09:45:59;;;;;;;10.18;1.98;;;15.00;96.40;;;;;;5004851;28;20070;-54
2022/11/03 09:48:25;;;;;;;12.10;3.00;;;12.80;95.80;;;;;;5006676;28;20098;-55
2022/11/03 09:50:53;;;;;;;11.90;2.60;;;14.50;97.00;;;;;;5007568;28;20089;-54
2022/11/03 09:53:20;;;;;;;14.65;2.50;;;13.00;95.60;;;;;;5004884;28;20049;-55
2022/11/03 09:55:46;;;;;;;9.73;1.98;;;13.10;94.90;;;;;;5004568;28;20141;-55
2022/11/03 09:58:16;;;;;;;10.13;2.40;;;13.10;94.60;;;;;;5003571;28;20045;-55
2022/11/03 10:00:43;;;;;;;10.60;3.20;;;15.20;93.10;;;;;;5004343;28;20124;-56
2022/11/03 10:03:13;;;;;;;10.45;2.30;;;13.90;91.30;;;;;;5006306;28;20052;-56
2022/11/03 10:05:41;;;;;;;9.57;2.40;;;13.60;91.90;;;;;;5004352;28;20064;-54
2022/11/03 10:08:17;;;;;;;10.75;2.78;;;13.40;91.20;;;;;;5005621;28;21155;-55
2022/11/03 10:10:43;;;;;;;12.73;2.72;;;13.50;88.00;;;;;;5005593;28;20579;-55
2022/11/03 10:13:16;;;;;;;13.25;3.20;;;13.50;90.10;;;;;;5005849;28;20043;-56
2022/11/03 10:15:42;;;;;;;14.27;2.90;;;13.60;91.30;;;;;;5003043;28;20045;-56
2022/11/03 10:18:09;;;;;;;9.32;2.53;;;13.60;89.30;;;;;;5002550;28;20045;-56
2022/11/03 10:20:34;;;;;;;10.93;2.40;;;13.80;90.40;;;;;;5006724;28;20220;-55
2022/11/03 10:23:00;;;;;;;8.82;2.17;;;13.40;89.60;;;;;;5006653;28;20070;-53
2022/11/03 10:25:28;;;;;;;13.32;2.20;;;13.60;89.60;;;;;;5005409;28;20037;-54
2022/11/03 10:28:12;;;;;;;10.68;2.63;;;13.50;90.60;;;;;;5005993;28;20113;-53
2022/11/03 10:30:57;;;;;;;15.63;2.70;;;13.60;90.10;;;;;;5006185;28;20041;-55
2022/11/03 10:33:31;;;;;;;10.05;2.42;;;13.60;82.00;;;;;;5005042;28;20054;-55
2022/11/03 10:35:58;;;;;;;17.38;3.05;;;13.70;83.30;;;;;;5005795;28;20144;-55
2022/11/03 10:38:31;;;;;;;9.00;2.70;;;13.50;87.70;;;;;;5003962;28;20899;-55
2022/11/03 10:41:18;;;;;;;15.80;2.85;;;13.60;85.30;;;;;;5005737;28;20129;-55
2022/11/03 10:44:24;;;;;;;9.52;2.70;;;13.60;81.50;;;;;;5003869;28;20102;-56
2022/11/03 10:47:03;;;;;;;13.15;3.15;;;13.80;79.50;;;;;;5003623;28;20073;-56
2022/11/03 10:49:35;;;;;;;15.43;3.05;;;13.80;81.70;;;;;;5003156;28;20499;-56
2022/11/03 10:52:14;;;;;;;12.77;3.08;;;13.80;79.50;;;;;;5005614;28;20050;-55
2022/11/03 10:54:39;;;;;;;10.70;2.58;;;14.00;79.00;;;;;;5004035;28;20457;-55
2022/11/03 10:57:05;;;;;;;11.15;2.38;;;13.80;67.90;;;;;;5000025;28;20045;-55
2022/11/03 10:59:33;;;;;;;12.25;3.28;;;13.90;69.50;;;;;;5003478;28;20068;-55
2022/11/03 11:01:59;;;;;;;15.35;2.38;;;14.00;70.60;;;;;;5002166;28;20064;-55
2022/11/03 11:04:25;;;;;;;12.27;2.50;;;13.90;70.00;;;;;;5004314;28;20048;-55
2022/11/03 11:06:51;;;;;;;14.05;3.10;;;14.10;65.70;;;;;;5006162;28;21434;-55
2022/11/03 11:09:25;;;;;;;15.23;3.60;;;14.10;66.20;;;;;;5003815;28;20198;-55
2022/11/03 11:12:01;;;;;;;12.93;2.78;;;14.10;64.00;;;;;;5004337;28;20042;-54
2022/11/03 11:14:27;;;;;;;13.43;2.22;;;14.30;62.30;;;;;;5004533;28;20041;-55
2022/11/03 11:16:53;;;;;;;12.40;2.33;;;14.40;65.10;;;;;;5006283;28;20044;-55
2022/11/03 11:19:21;;;;;;;11.00;2.88;;;14.40;62.80;;;;;;5001444;28;20062;-55
2022/11/03 11:21:48;;;;;;;9.88;2.53;;;13.30;53.90;;;;;;5007551;28;20050;-56
2022/11/03 11:24:43;;;;;;;11.27;2.92;;;14.50;37.40;;;;;;5005599;28;20588;-55
2022/11/03 11:27:33;;;;;;;16.45;2.08;;;14.80;30.80;;;;;;5001525;28;20037;-55
2022/11/03 11:30:00;;;;;;;11.82;2.10;;;14.40;20.10;;;;;;5001672;28;20038;-56
2022/11/03 11:32:41;;;;;;;8.75;2.40;;;14.70;12.40;;;;;;5003442;28;20738;-55
2022/11/03 11:35:08;;;;;;;11.95;2.35;;;14.80;13.20;;;;;;5001301;28;20052;-55
2022/11/03 11:37:36;;;;;;;10.60;2.17;;;14.80;16.60;;;;;;5002273;28;20049;-55
2022/11/03 11:40:12;;;;;;;9.93;2.20;;;14.60;6.90;;;;;;5004598;28;20053;-55
2022/11/03 11:43:00;;;;;;;11.02;2.70;;;14.70;5.30;;;;;;5004752;28;20080;-55
2022/11/03 11:46:03;;;;;;;7.70;2.70;;;14.70;1.60;;;;;;5003057;28;20046;-56
2022/11/03 11:48:30;;;;;;;8.52;2.20;;;14.80;1.00;;;;;;5006362;28;20045;-55
2022/11/03 11:50:59;;;;;;;12.40;2.70;;;14.60;1.00;;;;;;5003567;28;20037;-55
2022/11/03 11:53:26;;;;;;;12.05;2.42;;;14.60;1.00;;;;;;5001991;28;20102;-55
2022/11/03 11:55:57;;;;;;;11.88;2.28;;;14.80;1.00;;;;;;5001002;28;20042;-55
2022/11/03 11:58:54;;;;;;;11.50;3.25;;;14.70;2.00;;;;;;5001371;28;20052;-56
2022/11/03 12:01:22;;;;;;;11.00;2.08;;;14.80;1.00;;;;;;5001833;28;23237;-55
2022/11/03 12:03:50;;;;;;;9.82;1.95;;;14.80;1.00;;;;;;5003180;28;20045;-55
2022/11/03 12:06:16;;;;;;;10.18;2.60;;;14.60;1.00;;;;;;5002985;28;20594;-55
2022/11/03 12:08:42;;;;;;;9.85;2.08;;;14.80;5.10;;;;;;5003437;28;20060;-55
2022/11/03 12:11:10;;;;;;;9.18;2.05;;;14.70;2.20;;;;;;5001159;28;20495;-56
2022/11/03 12:13:50;;;;;;;12.70;1.92;;;14.70;1.00;;;;;;5002829;28;20812;-55
2022/11/03 12:16:32;;;;;;;10.18;2.63;;;14.60;1.00;;;;;;5000444;28;20130;-55
2022/11/03 12:19:35;;;;;;;12.50;2.13;;;14.80;1.00;;;;;;4999147;28;20127;-56
2022/11/03 12:22:06;;;;;;;16.38;2.58;;;14.70;1.00;;;;;;5002063;28;20615;-56
2022/11/03 12:24:32;;;;;;;10.57;2.40;;;14.60;1.00;;;;;;4997924;28;20042;-56
2022/11/03 12:26:59;;;;;;;10.68;2.67;;;14.50;1.00;;;;;;5003557;28;20046;-56
2022/11/03 12:29:24;;;;;;;12.00;1.83;;;14.80;1.00;;;;;;5004448;28;20558;-56
2022/11/03 12:31:50;;;;;;;8.52;2.95;;;14.60;1.00;;;;;;4999911;28;20076;-55
2022/11/03 12:34:17;;;;;;;9.55;2.30;;;14.80;1.00;;;;;;5003643;28;20049;-55
2022/11/03 12:36:43;;;;;;;10.15;1.90;;;14.40;1.00;;;;;;5001574;28;20118;-56
2022/11/03 12:39:09;;;;;;;8.32;1.98;;;14.50;1.00;;;;;;4995456;28;20132;-55
2022/11/03 12:41:35;;;;;;;9.07;1.98;;;14.70;1.00;;;;;;5002801;28;20034;-55
2022/11/03 12:44:01;;;;;;;9.73;2.20;;;14.50;1.00;;;;;;5007743;28;20057;-56
2022/11/03 12:46:27;;;;;;;7.32;1.77;;;14.70;1.00;;;;;;5008776;28;20045;-53
2022/11/03 12:48:52;;;;;;;7.60;1.60;;;14.70;1.00;;;;;;5008017;28;20495;-56
2022/11/03 12:51:21;;;;;;;9.63;2.35;;;14.70;1.00;;;;;;5009257;28;20034;-55
2022/11/03 12:53:47;;;;;;;9.55;2.05;;;14.70;1.00;;;;;;5008182;28;20757;-56
2022/11/03 12:56:14;;;;;;;10.55;2.28;;;14.70;1.00;;;;;;5007662;28;20038;-56
2022/11/03 12:58:40;;;;;;;6.68;1.77;;;14.70;1.00;;;;;;5005722;28;20473;-55
2022/11/03 13:01:07;;;;;;;9.32;2.22;;;14.60;1.00;;;;;;5007546;28;20132;-54
2022/11/03 13:03:34;;;;;;;9.48;1.70;;;14.80;1.00;;;;;;5007094;28;20048;-56
2022/11/03 13:06:03;;;;;;;8.38;2.00;;;14.70;1.00;;;;;;5007365;28;20066;-55
2022/11/03 13:08:32;;;;;;;8.00;1.85;;;15.20;1.00;;;;;;5007990;28;20851;-56
2022/11/03 13:10:58;;;;;;;9.35;2.20;;;14.60;1.00;;;;;;5004208;28;20045;-56
2022/11/03 13:13:24;;;;;;;12.73;2.25;;;14.80;1.00;;;;;;5006333;28;20057;-54
2022/11/03 13:15:51;;;;;;;12.60;2.15;;;14.70;1.00;;;;;;5003816;28;21115;-56